Time;durP1;ratioP1;P1;durP2;ratioP2;P2;SDS_P1;SDS_P2;PMS_P1;PMS_P2;Temp;Humidity;BMP_temperature;BMP_pressure;BME280_temperature;BME280_humidity;BME280_pressure;Samples;Min_cycle;Max_cycle;Signal;HPM_P1;HPM_P2
2022/10/05 00:00:37;;;;;;;7.20;2.10;;;;;;;;;;2084855;28;20033;-76
2022/10/05 00:01:56;;;;;;;5.55;1.90;;;;;;;;;;2087860;28;20037;-77
2022/10/05 00:03:15;;;;;;;6.32;2.20;;;;;;;;;;2077305;28;20112;-78
2022/10/05 00:04:34;;;;;;;8.50;2.75;;;;;;;;;;2084422;28;20041;-78
2022/10/05 00:05:53;;;;;;;6.32;2.40;;;;;;;;;;2086569;28;20025;-78
2022/10/05 00:07:13;;;;;;;4.47;2.40;;;;;;;;;;2089747;28;20033;-78
2022/10/05 00:08:33;;;;;;;3.67;2.40;;;;;;;;;;2088258;28;20045;-78
2022/10/05 00:09:56;;;;;;;6.22;2.05;;;;;;;;;;2079440;28;20365;-79
2022/10/05 00:11:15;;;;;;;5.63;2.13;;;;;;;;;;2086915;28;20025;-78
2022/10/05 00:12:35;;;;;;;7.68;2.35;;;;;;;;;;2079389;28;21685;-77
2022/10/05 00:13:53;;;;;;;9.48;2.78;;;;;;;;;;2085246;28;20108;-78
2022/10/05 00:15:14;;;;;;;9.25;2.83;;;;;;;;;;2088341;28;20037;-76
2022/10/05 00:16:33;;;;;;;7.20;3.08;;;;;;;;;;2088612;28;20021;-77
2022/10/05 00:17:52;;;;;;;7.82;3.42;;;;;;;;;;2077667;28;20490;-78
2022/10/05 00:19:18;;;;;;;8.25;3.50;;;;;;;;;;2084616;28;20048;-78
2022/10/05 00:20:39;;;;;;;7.45;3.33;;;;;;;;;;2087196;28;20033;-78
2022/10/05 00:22:16;;;;;;;11.88;3.08;;;;;;;;;;2080578;28;20034;-79
2022/10/05 00:23:35;;;;;;;8.32;3.25;;;;;;;;;;2086311;28;20025;-78
2022/10/05 00:24:55;;;;;;;7.82;2.60;;;;;;;;;;2088365;28;20545;-78
2022/10/05 00:26:24;;;;;;;6.57;2.53;;;;;;;;;;2089042;28;20033;-78
2022/10/05 00:27:45;;;;;;;5.50;2.35;;;;;;;;;;2086425;28;20061;-78
2022/10/05 00:29:17;;;;;;;13.30;3.10;;;;;;;;;;2080613;28;20037;-78
2022/10/05 00:30:36;;;;;;;7.43;2.45;;;;;;;;;;2086922;28;20490;-78
2022/10/05 00:31:55;;;;;;;8.05;2.60;;;;;;;;;;2079035;28;20041;-77
2022/10/05 00:33:14;;;;;;;9.90;3.55;;;;;;;;;;2084375;28;20033;-78
2022/10/05 00:34:33;;;;;;;5.07;2.22;;;;;;;;;;2089118;28;20060;-78
2022/10/05 00:35:52;;;;;;;11.98;2.30;;;;;;;;;;2074329;28;20034;-78
2022/10/05 00:37:12;;;;;;;5.50;2.33;;;;;;;;;;2083931;28;20037;-78
2022/10/05 00:38:31;;;;;;;7.10;2.67;;;;;;;;;;2088909;28;20020;-76
2022/10/05 00:39:50;;;;;;;12.93;2.38;;;;;;;;;;2088267;28;20037;-78
2022/10/05 00:41:27;;;;;;;7.22;2.30;;;;;;;;;;2086844;28;20120;-78
2022/10/05 00:43:06;;;;;;;8.00;1.85;;;;;;;;;;2087206;28;20542;-78
2022/10/05 00:44:35;;;;;;;7.28;2.40;;;;;;;;;;2088618;28;20041;-78
2022/10/05 00:45:59;;;;;;;6.10;2.25;;;;;;;;;;2081393;28;20033;-79
2022/10/05 00:47:20;;;;;;;10.93;2.70;;;;;;;;;;2086083;28;20025;-78
2022/10/05 00:48:59;;;;;;;9.43;2.70;;;;;;;;;;2086673;28;20068;-79
2022/10/05 00:50:21;;;;;;;4.07;2.05;;;;;;;;;;2079164;28;20121;-78
2022/10/05 00:51:44;;;;;;;8.00;2.15;;;;;;;;;;2086263;28;20033;-79
2022/10/05 00:53:22;;;;;;;5.85;2.25;;;;;;;;;;2089322;28;20108;-78
2022/10/05 00:54:44;;;;;;;7.22;2.15;;;;;;;;;;2088584;28;20556;-78
2022/10/05 00:56:15;;;;;;;7.47;2.60;;;;;;;;;;2087838;28;20434;-78
2022/10/05 00:57:53;;;;;;;6.95;2.60;;;;;;;;;;2086599;28;20113;-77
2022/10/05 00:59:24;;;;;;;11.40;2.92;;;;;;;;;;2086699;28;20486;-77
2022/10/05 01:00:59;;;;;;;7.18;2.28;;;;;;;;;;2087099;28;20041;-78
2022/10/05 01:02:38;;;;;;;6.07;2.42;;;;;;;;;;2087850;28;20112;-78
2022/10/05 01:03:57;;;;;;;8.75;2.45;;;;;;;;;;2076697;28;20053;-77
2022/10/05 01:05:34;;;;;;;7.43;2.80;;;;;;;;;;2082323;28;20029;-78
2022/10/05 01:06:56;;;;;;;7.15;2.45;;;;;;;;;;2086867;28;20656;-78
2022/10/05 01:08:18;;;;;;;7.28;2.45;;;;;;;;;;2086725;28;20494;-78
2022/10/05 01:09:41;;;;;;;9.23;2.92;;;;;;;;;;2087399;28;20525;-78
2022/10/05 01:10:59;;;;;;;8.18;2.50;;;;;;;;;;2080194;28;20037;-78
2022/10/05 01:12:32;;;;;;;11.90;3.00;;;;;;;;;;2084679;28;20029;-77
2022/10/05 01:13:51;;;;;;;6.72;2.92;;;;;;;;;;2088791;28;20021;-78
2022/10/05 01:15:26;;;;;;;9.52;3.17;;;;;;;;;;2089365;28;20033;-78
2022/10/05 01:16:44;;;;;;;6.25;2.88;;;;;;;;;;2089120;28;20441;-77
2022/10/05 01:18:22;;;;;;;6.65;2.80;;;;;;;;;;2088387;28;20013;-78
2022/10/05 01:19:56;;;;;;;8.18;3.00;;;;;;;;;;2086698;28;20028;-78
2022/10/05 01:21:19;;;;;;;13.23;3.60;;;;;;;;;;2088221;28;20033;-78
2022/10/05 01:22:56;;;;;;;5.75;2.70;;;;;;;;;;2080438;28;20120;-78
2022/10/05 01:24:26;;;;;;;7.38;2.70;;;;;;;;;;2088675;28;20037;-78
2022/10/05 01:25:45;;;;;;;9.20;2.65;;;;;;;;;;2088687;28;20032;-78
2022/10/05 01:27:04;;;;;;;6.82;2.85;;;;;;;;;;2086026;28;20100;-78
2022/10/05 01:28:29;;;;;;;5.78;2.22;;;;;;;;;;2083215;28;20041;-78
2022/10/05 01:29:55;;;;;;;5.25;3.03;;;;;;;;;;2079467;28;20151;-77
2022/10/05 01:31:25;;;;;;;9.48;2.40;;;;;;;;;;2084293;28;20033;-77
2022/10/05 01:32:49;;;;;;;6.45;2.80;;;;;;;;;;2088167;28;20028;-78
2022/10/05 01:34:23;;;;;;;12.07;2.92;;;;;;;;;;2086908;28;20038;-78
2022/10/05 01:35:50;;;;;;;7.68;2.90;;;;;;;;;;2075532;28;20025;-78
2022/10/05 01:37:29;;;;;;;6.20;3.35;;;;;;;;;;2084988;28;20055;-78
2022/10/05 01:38:52;;;;;;;7.75;3.13;;;;;;;;;;2087717;28;20021;-78
2022/10/05 01:40:11;;;;;;;10.00;3.40;;;;;;;;;;2075565;28;20816;-78
2022/10/05 01:41:37;;;;;;;8.05;2.95;;;;;;;;;;2075554;28;20519;-78
2022/10/05 01:42:59;;;;;;;10.00;3.10;;;;;;;;;;2085291;28;20076;-78
2022/10/05 01:44:23;;;;;;;14.00;3.33;;;;;;;;;;2087512;28;20406;-78
2022/10/05 01:46:01;;;;;;;12.82;2.92;;;;;;;;;;2087206;28;20120;-78
2022/10/05 01:47:35;;;;;;;4.63;2.50;;;;;;;;;;2079402;28;20030;-78
2022/10/05 01:49:06;;;;;;;8.50;2.80;;;;;;;;;;2086421;28;20033;-78
2022/10/05 01:50:32;;;;;;;5.90;2.30;;;;;;;;;;2078252;28;20506;-78
2022/10/05 01:52:01;;;;;;;8.65;3.05;;;;;;;;;;2084078;28;20033;-77
2022/10/05 01:53:26;;;;;;;8.63;3.08;;;;;;;;;;2078416;28;20037;-76
2022/10/05 01:54:45;;;;;;;7.85;3.03;;;;;;;;;;2085290;28;20033;-79
2022/10/05 01:56:23;;;;;;;8.90;2.78;;;;;;;;;;2088400;28;20486;-79
2022/10/05 01:57:49;;;;;;;6.65;2.90;;;;;;;;;;2086879;28;20032;-78
2022/10/05 01:59:17;;;;;;;14.73;3.53;;;;;;;;;;2077198;28;20037;-78
2022/10/05 02:00:46;;;;;;;5.60;2.75;;;;;;;;;;2084093;28;20028;-78
2022/10/05 02:02:13;;;;;;;11.98;3.33;;;;;;;;;;2084148;28;20453;-78
2022/10/05 02:03:37;;;;;;;9.02;2.83;;;;;;;;;;2079273;28;20034;-77
2022/10/05 02:05:05;;;;;;;10.27;2.80;;;;;;;;;;2085423;28;20036;-77
2022/10/05 02:06:26;;;;;;;12.68;3.17;;;;;;;;;;2088926;28;20033;-77
2022/10/05 02:07:48;;;;;;;9.52;2.80;;;;;;;;;;2086364;28;20445;-77
2022/10/05 02:09:16;;;;;;;8.65;3.10;;;;;;;;;;2075977;28;20038;-76
2022/10/05 02:10:37;;;;;;;10.07;2.97;;;;;;;;;;2084092;28;20479;-77
2022/10/05 02:12:05;;;;;;;8.98;2.65;;;;;;;;;;2079883;28;20030;-78
2022/10/05 02:13:29;;;;;;;13.95;3.22;;;;;;;;;;2085653;28;20036;-77
2022/10/05 02:14:49;;;;;;;6.90;2.75;;;;;;;;;;2086755;28;20025;-77
2022/10/05 02:16:16;;;;;;;6.18;2.60;;;;;;;;;;2085511;28;20494;-77
2022/10/05 02:17:39;;;;;;;7.03;3.15;;;;;;;;;;2076491;28;20037;-78
2022/10/05 02:19:19;;;;;;;7.43;3.15;;;;;;;;;;2082580;28;20579;-77
2022/10/05 02:20:40;;;;;;;7.50;3.20;;;;;;;;;;2085948;28;20029;-77
2022/10/05 02:22:12;;;;;;;10.25;2.95;;;;;;;;;;2085628;28;20032;-77
2022/10/05 02:23:32;;;;;;;8.63;2.90;;;;;;;;;;2087434;28;20468;-77
2022/10/05 02:25:03;;;;;;;9.70;3.75;;;;;;;;;;2080462;28;20033;-77
2022/10/05 02:26:23;;;;;;;10.50;2.97;;;;;;;;;;2083879;28;20131;-77
2022/10/05 02:27:45;;;;;;;13.32;3.17;;;;;;;;;;2087196;28;20029;-78
2022/10/05 02:29:10;;;;;;;7.05;2.90;;;;;;;;;;2085873;28;20064;-77
2022/10/05 02:30:30;;;;;;;6.90;2.70;;;;;;;;;;2075335;28;20151;-77
2022/10/05 02:31:57;;;;;;;12.70;3.28;;;;;;;;;;2081193;28;20041;-77
2022/10/05 02:33:30;;;;;;;10.77;3.53;;;;;;;;;;2086294;28;20486;-77
2022/10/05 02:34:49;;;;;;;13.30;3.17;;;;;;;;;;2087936;28;20168;-78
2022/10/05 02:36:11;;;;;;;7.38;3.38;;;;;;;;;;2083426;28;20510;-77
2022/10/05 02:37:36;;;;;;;9.90;3.05;;;;;;;;;;2084189;28;20025;-78
2022/10/05 02:39:03;;;;;;;5.05;2.90;;;;;;;;;;2086428;28;20402;-77
2022/10/05 02:40:32;;;;;;;7.50;2.97;;;;;;;;;;2089100;28;20053;-77
2022/10/05 02:41:54;;;;;;;9.57;2.80;;;;;;;;;;2086033;28;20458;-77
2022/10/05 02:43:31;;;;;;;17.15;3.33;;;;;;;;;;2088375;28;20029;-77
2022/10/05 02:45:00;;;;;;;5.82;3.03;;;;;;;;;;2088393;28;20045;-77
2022/10/05 02:46:31;;;;;;;8.30;3.03;;;;;;;;;;2087125;28;20044;-77
2022/10/05 02:47:50;;;;;;;13.95;3.50;;;;;;;;;;2086988;28;20029;-78
2022/10/05 02:49:27;;;;;;;10.80;3.00;;;;;;;;;;2088625;28;20044;-77
2022/10/05 02:51:05;;;;;;;10.48;3.67;;;;;;;;;;2086558;28;20452;-77
2022/10/05 02:52:43;;;;;;;6.20;3.20;;;;;;;;;;2088259;28;20064;-77
2022/10/05 02:54:11;;;;;;;7.85;2.63;;;;;;;;;;2077661;28;20409;-78
2022/10/05 02:55:36;;;;;;;11.80;3.28;;;;;;;;;;2085299;28;20490;-77
2022/10/05 02:57:08;;;;;;;4.93;2.97;;;;;;;;;;2086712;28;20032;-77
2022/10/05 02:58:30;;;;;;;10.45;3.15;;;;;;;;;;2078873;28;20029;-77
2022/10/05 02:59:55;;;;;;;8.68;3.05;;;;;;;;;;2083518;28;20029;-77
2022/10/05 03:01:26;;;;;;;11.15;3.03;;;;;;;;;;2085498;28;20028;-76
2022/10/05 03:02:56;;;;;;;10.40;3.17;;;;;;;;;;2088679;28;20048;-77
2022/10/05 03:04:14;;;;;;;7.82;3.70;;;;;;;;;;2087619;28;20021;-77
2022/10/05 03:05:40;;;;;;;9.13;2.90;;;;;;;;;;2088551;28;20147;-77
2022/10/05 03:07:17;;;;;;;12.38;3.97;;;;;;;;;;2085079;28;20037;-77
2022/10/05 03:08:41;;;;;;;15.73;3.47;;;;;;;;;;2089006;28;20048;-77
2022/10/05 03:10:08;;;;;;;11.38;3.28;;;;;;;;;;2088419;28;20397;-77
2022/10/05 03:11:33;;;;;;;11.35;3.30;;;;;;;;;;2076789;28;20041;-77
2022/10/05 03:12:59;;;;;;;5.70;2.78;;;;;;;;;;2080946;28;20572;-77
2022/10/05 03:14:25;;;;;;;6.13;2.88;;;;;;;;;;2086890;28;20033;-77
2022/10/05 03:15:51;;;;;;;7.82;3.00;;;;;;;;;;2085728;28;20418;-77
2022/10/05 03:17:13;;;;;;;10.60;3.10;;;;;;;;;;2075885;28;20045;-76
2022/10/05 03:18:47;;;;;;;7.93;3.10;;;;;;;;;;2085701;28;20025;-77
2022/10/05 03:20:15;;;;;;;11.90;3.40;;;;;;;;;;2089890;28;20029;-77
2022/10/05 03:21:40;;;;;;;13.13;3.08;;;;;;;;;;2087083;28;20037;-77
2022/10/05 03:23:00;;;;;;;9.45;3.08;;;;;;;;;;2087976;28;20033;-77
2022/10/05 03:24:34;;;;;;;10.15;3.35;;;;;;;;;;2088298;28;20445;-76
2022/10/05 03:26:01;;;;;;;14.73;3.85;;;;;;;;;;2080915;28;20041;-77
2022/10/05 03:27:50;;;;;;;7.32;3.53;;;;;;;;;;2088238;28;20029;-77
2022/10/05 03:29:24;;;;;;;8.23;3.17;;;;;;;;;;2082634;28;20510;-77
2022/10/05 03:31:02;;;;;;;10.52;3.03;;;;;;;;;;2085316;28;20044;-76
2022/10/05 03:32:29;;;;;;;9.80;2.92;;;;;;;;;;2083991;28;20029;-76
2022/10/05 03:33:57;;;;;;;6.03;3.22;;;;;;;;;;2088049;28;20064;-77
2022/10/05 03:35:19;;;;;;;8.93;3.13;;;;;;;;;;2088049;28;20032;-77
2022/10/05 03:36:53;;;;;;;13.60;3.25;;;;;;;;;;2088921;28;20029;-77
2022/10/05 03:38:24;;;;;;;9.75;3.22;;;;;;;;;;2077595;28;20029;-76
2022/10/05 03:39:47;;;;;;;10.73;3.22;;;;;;;;;;2087745;28;20029;-77
2022/10/05 03:41:25;;;;;;;8.63;3.20;;;;;;;;;;2090421;28;20061;-78
2022/10/05 03:42:57;;;;;;;9.93;3.28;;;;;;;;;;2089785;28;20394;-77
2022/10/05 03:44:23;;;;;;;8.30;3.38;;;;;;;;;;2085589;28;20041;-76
2022/10/05 03:45:41;;;;;;;10.15;3.10;;;;;;;;;;2088192;28;20033;-78
2022/10/05 03:47:09;;;;;;;8.15;3.22;;;;;;;;;;2087002;28;20041;-78
2022/10/05 03:48:34;;;;;;;10.00;3.38;;;;;;;;;;2087491;28;20033;-76
2022/10/05 03:50:11;;;;;;;7.60;3.25;;;;;;;;;;2090602;28;20025;-77
2022/10/05 03:51:34;;;;;;;11.65;3.55;;;;;;;;;;2088957;28;20041;-77
2022/10/05 03:52:56;;;;;;;6.25;3.00;;;;;;;;;;2088465;28;20029;-78
2022/10/05 03:54:28;;;;;;;11.38;3.28;;;;;;;;;;2086564;28;21249;-78
2022/10/05 03:55:58;;;;;;;7.97;3.07;;;;;;;;;;2079572;28;20549;-78
2022/10/05 03:57:19;;;;;;;8.52;2.95;;;;;;;;;;2084629;28;20506;-78
2022/10/05 03:58:41;;;;;;;11.20;3.63;;;;;;;;;;2089626;28;20486;-78
2022/10/05 04:00:14;;;;;;;6.57;3.05;;;;;;;;;;2085069;28;20041;-77
2022/10/05 04:01:52;;;;;;;8.93;3.10;;;;;;;;;;2085245;28;20033;-78
2022/10/05 04:03:16;;;;;;;12.88;3.60;;;;;;;;;;2079622;28;20534;-78
2022/10/05 04:04:41;;;;;;;5.30;2.78;;;;;;;;;;2085189;28;20073;-78
2022/10/05 04:06:21;;;;;;;5.95;2.50;;;;;;;;;;2089604;28;20490;-78
2022/10/05 04:07:45;;;;;;;9.35;3.47;;;;;;;;;;2086963;28;20040;-78
2022/10/05 04:09:09;;;;;;;7.00;2.70;;;;;;;;;;2086262;28;20029;-78
2022/10/05 04:10:32;;;;;;;11.75;3.50;;;;;;;;;;2087340;28;20490;-77
2022/10/05 04:11:53;;;;;;;7.80;2.85;;;;;;;;;;2087280;28;20029;-78
2022/10/05 04:13:33;;;;;;;8.90;3.10;;;;;;;;;;2087271;28;20033;-77
2022/10/05 04:15:14;;;;;;;15.18;3.42;;;;;;;;;;2087313;28;20025;-82
2022/10/05 04:16:42;;;;;;;7.03;2.75;;;;;;;;;;2084396;28;20029;-76
2022/10/05 04:18:06;;;;;;;9.02;2.83;;;;;;;;;;2085812;28;20045;-80
2022/10/05 04:19:36;;;;;;;4.53;2.88;;;;;;;;;;2086380;28;20032;-79
2022/10/05 04:20:56;;;;;;;8.18;3.30;;;;;;;;;;2078544;28;20105;-79
2022/10/05 04:22:20;;;;;;;9.10;3.17;;;;;;;;;;2081519;28;20029;-78
2022/10/05 04:23:39;;;;;;;12.57;3.00;;;;;;;;;;2088418;28;20477;-78
2022/10/05 04:25:04;;;;;;;7.90;3.25;;;;;;;;;;2083993;28;20025;-77
2022/10/05 04:26:27;;;;;;;9.82;3.33;;;;;;;;;;2081391;28;20502;-78
2022/10/05 04:27:49;;;;;;;8.15;2.92;;;;;;;;;;2078448;28;20037;-78
2022/10/05 04:29:14;;;;;;;9.38;3.35;;;;;;;;;;2083777;28;20068;-78
2022/10/05 04:30:37;;;;;;;13.30;3.92;;;;;;;;;;2086567;28;20513;-79
2022/10/05 04:31:56;;;;;;;11.48;3.10;;;;;;;;;;2086796;28;20064;-78
2022/10/05 04:33:15;;;;;;;10.88;3.25;;;;;;;;;;2085177;28;20033;-80
2022/10/05 04:34:53;;;;;;;6.03;3.03;;;;;;;;;;2089370;28;20044;-80
2022/10/05 04:36:15;;;;;;;6.75;2.85;;;;;;;;;;2087126;28;20033;-81
2022/10/05 04:37:37;;;;;;;14.95;3.47;;;;;;;;;;2083799;28;20494;-80
2022/10/05 04:39:02;;;;;;;7.25;2.90;;;;;;;;;;2088022;28;20033;-82
2022/10/05 04:40:24;;;;;;;9.77;3.13;;;;;;;;;;2088655;28;20104;-80
2022/10/05 04:41:49;;;;;;;8.65;3.08;;;;;;;;;;2087418;28;20033;-77
2022/10/05 04:43:14;;;;;;;9.35;3.17;;;;;;;;;;2079013;28;20476;-78
2022/10/05 04:44:51;;;;;;;8.68;3.08;;;;;;;;;;2084315;28;20025;-79
2022/10/05 04:46:10;;;;;;;12.18;3.58;;;;;;;;;;2089268;28;20029;-80
2022/10/05 04:47:48;;;;;;;11.18;3.03;;;;;;;;;;2088619;28;20036;-80
2022/10/05 04:49:25;;;;;;;8.18;2.85;;;;;;;;;;2089051;28;20108;-79
2022/10/05 04:50:54;;;;;;;8.98;3.75;;;;;;;;;;2088762;28;20493;-83
2022/10/05 04:52:16;;;;;;;7.63;3.13;;;;;;;;;;2089389;28;20053;-77
2022/10/05 04:53:38;;;;;;;10.55;2.85;;;;;;;;;;2086980;28;20041;-78
2022/10/05 04:55:15;;;;;;;9.15;3.22;;;;;;;;;;2088330;28;20389;-78
2022/10/05 04:56:40;;;;;;;9.07;3.45;;;;;;;;;;2079247;28;21168;-79
2022/10/05 04:58:25;;;;;;;10.15;3.22;;;;;;;;;;2084207;28;20041;-78
2022/10/05 05:00:04;;;;;;;8.73;3.53;;;;;;;;;;2088546;28;20032;-78
2022/10/05 05:01:26;;;;;;;7.05;3.85;;;;;;;;;;2087567;28;20508;-78
2022/10/05 05:02:51;;;;;;;8.68;3.63;;;;;;;;;;2088111;28;20429;-77
2022/10/05 05:04:17;;;;;;;9.52;3.00;;;;;;;;;;2087796;28;20436;-79
2022/10/05 05:05:36;;;;;;;6.18;3.30;;;;;;;;;;2088352;28;20033;-80
2022/10/05 05:07:13;;;;;;;7.63;3.20;;;;;;;;;;2089805;28;20029;-78
2022/10/05 05:08:40;;;;;;;7.90;2.92;;;;;;;;;;2088174;28;20115;-79
2022/10/05 05:10:18;;;;;;;8.63;3.75;;;;;;;;;;2088937;28;20041;-81
2022/10/05 05:11:40;;;;;;;7.70;3.22;;;;;;;;;;2089791;28;20115;-80
2022/10/05 05:13:08;;;;;;;6.28;2.75;;;;;;;;;;2089160;28;20498;-80
2022/10/05 05:14:54;;;;;;;5.65;3.47;;;;;;;;;;2088633;28;20028;-80
2022/10/05 05:16:32;;;;;;;7.07;3.17;;;;;;;;;;2089016;28;20108;-79
2022/10/05 05:17:54;;;;;;;7.68;2.80;;;;;;;;;;2088544;28;20064;-79
2022/10/05 05:19:16;;;;;;;7.88;3.40;;;;;;;;;;2087817;28;20045;-79
2022/10/05 05:20:52;;;;;;;9.98;3.60;;;;;;;;;;2079306;28;20101;-79
2022/10/05 05:22:32;;;;;;;8.13;3.35;;;;;;;;;;2079552;28;20021;-79
2022/10/05 05:23:50;;;;;;;7.07;3.33;;;;;;;;;;2086951;28;20028;-78
2022/10/05 05:25:18;;;;;;;13.15;3.42;;;;;;;;;;2087516;28;20037;-78
2022/10/05 05:26:46;;;;;;;9.45;3.22;;;;;;;;;;2087811;28;20037;-79
2022/10/05 05:28:20;;;;;;;6.20;2.92;;;;;;;;;;2080906;28;20044;-79
2022/10/05 05:29:42;;;;;;;6.65;2.90;;;;;;;;;;2087536;28;20076;-79
2022/10/05 05:31:21;;;;;;;7.83;2.90;;;;;;;;;;2087208;28;20021;-80
2022/10/05 05:32:40;;;;;;;9.63;2.80;;;;;;;;;;2089452;28;20234;-80
2022/10/05 05:34:16;;;;;;;9.13;3.67;;;;;;;;;;2087683;28;20045;-80
2022/10/05 05:35:43;;;;;;;8.55;3.35;;;;;;;;;;2079499;28;20025;-79
2022/10/05 05:37:21;;;;;;;8.50;3.50;;;;;;;;;;2086347;28;20029;-79
2022/10/05 05:38:41;;;;;;;6.13;2.97;;;;;;;;;;2087135;28;20493;-79
2022/10/05 05:40:15;;;;;;;7.45;2.72;;;;;;;;;;2087866;28;20508;-79
2022/10/05 05:41:38;;;;;;;7.45;3.13;;;;;;;;;;2087836;28;20112;-81
2022/10/05 05:43:06;;;;;;;7.90;3.03;;;;;;;;;;2087802;28;20038;-80
2022/10/05 05:44:26;;;;;;;8.60;3.63;;;;;;;;;;2079528;28;20045;-78
2022/10/05 05:45:51;;;;;;;9.25;3.20;;;;;;;;;;2085150;28;20151;-81
2022/10/05 05:47:22;;;;;;;13.23;3.58;;;;;;;;;;2087345;28;20030;-78
2022/10/05 05:48:42;;;;;;;7.93;2.80;;;;;;;;;;2079062;28;20029;-78
2022/10/05 05:50:17;;;;;;;5.90;3.47;;;;;;;;;;2079691;28;20049;-79
2022/10/05 05:51:40;;;;;;;9.18;3.67;;;;;;;;;;2079323;28;20120;-80
2022/10/05 05:53:05;;;;;;;8.67;3.53;;;;;;;;;;2085083;28;20433;-81
2022/10/05 05:54:40;;;;;;;6.70;3.20;;;;;;;;;;2076654;28;20271;-78
2022/10/05 05:56:04;;;;;;;10.10;3.97;;;;;;;;;;2077901;28;20033;-79
2022/10/05 05:57:47;;;;;;;8.32;4.35;;;;;;;;;;2085842;28;20128;-79
2022/10/05 05:59:30;;;;;;;8.25;4.05;;;;;;;;;;2086941;28;20887;-79
2022/10/05 06:00:53;;;;;;;7.53;3.50;;;;;;;;;;2087739;28;20025;-79
2022/10/05 06:02:14;;;;;;;8.23;3.83;;;;;;;;;;2088000;28;20025;-79
2022/10/05 06:03:40;;;;;;;6.68;3.53;;;;;;;;;;2088967;28;20041;-80
2022/10/05 06:05:08;;;;;;;5.95;3.15;;;;;;;;;;2089160;28;20062;-79
2022/10/05 06:06:31;;;;;;;7.93;3.58;;;;;;;;;;2080256;28;20097;-79
2022/10/05 06:07:51;;;;;;;11.27;4.25;;;;;;;;;;2077034;28;20046;-80
2022/10/05 06:09:32;;;;;;;8.85;3.70;;;;;;;;;;2082620;28;20025;-80
2022/10/05 06:10:54;;;;;;;6.43;3.60;;;;;;;;;;2088361;28;20029;-79
2022/10/05 06:12:21;;;;;;;12.57;4.07;;;;;;;;;;2087353;28;20064;-79
2022/10/05 06:13:40;;;;;;;9.88;3.65;;;;;;;;;;2088855;28;20033;-79
2022/10/05 06:15:23;;;;;;;8.65;3.88;;;;;;;;;;2079442;28;20112;-80
2022/10/05 06:17:01;;;;;;;7.70;3.80;;;;;;;;;;2064512;28;20035;-80
2022/10/05 06:18:21;;;;;;;5.65;3.60;;;;;;;;;;2079468;28;20033;-79
2022/10/05 06:19:41;;;;;;;11.15;4.10;;;;;;;;;;2082869;28;20029;-79
2022/10/05 06:21:00;;;;;;;6.55;3.40;;;;;;;;;;2088884;28;20032;-79
2022/10/05 06:22:22;;;;;;;7.47;3.95;;;;;;;;;;2088828;28;20025;-79
2022/10/05 06:23:47;;;;;;;7.25;3.63;;;;;;;;;;2088809;28;20033;-79
2022/10/05 06:25:12;;;;;;;8.45;3.85;;;;;;;;;;2087246;28;20398;-80
2022/10/05 06:26:38;;;;;;;8.13;3.75;;;;;;;;;;2079213;28;20025;-79
2022/10/05 06:28:14;;;;;;;7.13;3.88;;;;;;;;;;2077145;28;20041;-79
2022/10/05 06:29:45;;;;;;;8.25;3.63;;;;;;;;;;2086617;28;20123;-80
2022/10/05 06:31:04;;;;;;;8.43;3.28;;;;;;;;;;2076921;28;20033;-80
2022/10/05 06:32:30;;;;;;;7.82;3.50;;;;;;;;;;2076634;28;20029;-81
2022/10/05 06:33:50;;;;;;;9.00;3.35;;;;;;;;;;2076238;28;20025;-81
2022/10/05 06:35:25;;;;;;;8.63;3.40;;;;;;;;;;2084798;28;20056;-79
2022/10/05 06:36:49;;;;;;;11.02;3.97;;;;;;;;;;2088325;28;20025;-80
2022/10/05 06:38:26;;;;;;;7.90;3.47;;;;;;;;;;2079636;28;20018;-80
2022/10/05 06:39:53;;;;;;;8.55;3.40;;;;;;;;;;2087420;28;20021;-79
2022/10/05 06:41:14;;;;;;;7.25;3.40;;;;;;;;;;2087894;28;20065;-79
2022/10/05 06:42:52;;;;;;;11.18;4.60;;;;;;;;;;2088668;28;20048;-79
2022/10/05 06:44:30;;;;;;;9.10;3.67;;;;;;;;;;2086971;28;20045;-79
2022/10/05 06:45:55;;;;;;;8.05;3.55;;;;;;;;;;2078274;28;20593;-81
2022/10/05 06:47:22;;;;;;;6.40;3.40;;;;;;;;;;2077286;28;20033;-79
2022/10/05 06:48:53;;;;;;;5.68;3.80;;;;;;;;;;2084806;28;20033;-79
2022/10/05 06:50:28;;;;;;;6.50;3.83;;;;;;;;;;2087900;28;20029;-80
2022/10/05 06:51:56;;;;;;;6.47;3.80;;;;;;;;;;2087818;28;20033;-79
2022/10/05 06:53:18;;;;;;;6.57;3.58;;;;;;;;;;2087801;28;20068;-83
2022/10/05 06:54:46;;;;;;;15.20;3.83;;;;;;;;;;2087091;28;20053;-82
2022/10/05 06:56:08;;;;;;;9.15;3.63;;;;;;;;;;2080010;28;20057;-80
2022/10/05 06:57:51;;;;;;;9.10;3.47;;;;;;;;;;2074302;28;20038;-80
2022/10/05 06:59:17;;;;;;;6.40;3.85;;;;;;;;;;2087729;28;20036;-80
2022/10/05 07:00:55;;;;;;;6.60;3.80;;;;;;;;;;2078072;28;20030;-80
2022/10/05 07:02:23;;;;;;;5.90;3.45;;;;;;;;;;2083757;28;20804;-79
2022/10/05 07:03:44;;;;;;;6.15;3.60;;;;;;;;;;2088608;28;20482;-80
2022/10/05 07:05:06;;;;;;;10.05;3.72;;;;;;;;;;2084292;28;20439;-79
2022/10/05 07:06:49;;;;;;;6.00;3.15;;;;;;;;;;2078794;28;20033;-79
2022/10/05 07:08:11;;;;;;;4.05;3.38;;;;;;;;;;2088237;28;20103;-80
2022/10/05 07:09:30;;;;;;;10.15;3.78;;;;;;;;;;2087813;28;20482;-79
2022/10/05 07:10:52;;;;;;;8.70;3.90;;;;;;;;;;2088594;28;20033;-80
2022/10/05 07:12:20;;;;;;;15.55;4.90;;;;;;;;;;2077176;28;20045;-80
2022/10/05 07:13:39;;;;;;;6.47;3.65;;;;;;;;;;2077272;28;20041;-80
2022/10/05 07:15:06;;;;;;;3.85;3.30;;;;;;;;;;2078158;28;20025;-79
2022/10/05 07:16:45;;;;;;;8.63;3.35;;;;;;;;;;2085397;28;20552;-80
2022/10/05 07:18:16;;;;;;;5.93;3.70;;;;;;;;;;2085251;28;20029;-80
2022/10/05 07:19:40;;;;;;;9.27;4.05;;;;;;;;;;2088122;28;20386;-80
2022/10/05 07:21:17;;;;;;;5.72;3.28;;;;;;;;;;2087976;28;20028;-79
2022/10/05 07:22:36;;;;;;;9.30;3.40;;;;;;;;;;2087920;28;20033;-79
2022/10/05 07:24:05;;;;;;;8.68;3.15;;;;;;;;;;2088649;28;20029;-79
2022/10/05 07:25:30;;;;;;;13.45;3.67;;;;;;;;;;2086972;28;20103;-79
2022/10/05 07:26:56;;;;;;;6.55;3.88;;;;;;;;;;2088384;28;20601;-79
2022/10/05 07:28:18;;;;;;;6.60;3.35;;;;;;;;;;2086652;28;20032;-79
2022/10/05 07:29:37;;;;;;;6.38;3.42;;;;;;;;;;2079751;28;20034;-79
2022/10/05 07:31:12;;;;;;;5.88;3.85;;;;;;;;;;2081984;28;20037;-80
2022/10/05 07:32:53;;;;;;;5.97;4.05;;;;;;;;;;2087818;28;20100;-79
2022/10/05 07:34:25;;;;;;;6.57;3.50;;;;;;;;;;2086181;28;20029;-79
2022/10/05 07:39:17;;;;;;;6.00;3.35;;;;;;;;;;2087641;28;20029;-79
2022/10/05 07:40:39;;;;;;;8.18;4.15;;;;;;;;;;2087322;28;20025;-78
2022/10/05 07:42:04;;;;;;;6.53;3.40;;;;;;;;;;2088421;28;20390;-79
2022/10/05 07:43:42;;;;;;;6.40;3.17;;;;;;;;;;2088332;28;20609;-79
2022/10/05 07:45:24;;;;;;;7.13;3.22;;;;;;;;;;2087366;28;20041;-79
2022/10/05 07:47:00;;;;;;;9.25;3.20;;;;;;;;;;2087239;28;20116;-79
2022/10/05 07:48:21;;;;;;;10.32;3.75;;;;;;;;;;2087510;28;20083;-79
2022/10/05 07:49:43;;;;;;;10.27;3.80;;;;;;;;;;2087257;28;20525;-80
2022/10/05 07:51:11;;;;;;;6.63;3.85;;;;;;;;;;2078690;28;20069;-79
2022/10/05 07:52:37;;;;;;;6.38;3.40;;;;;;;;;;2076962;28;20062;-80
2022/10/05 07:54:06;;;;;;;6.65;3.30;;;;;;;;;;2086214;28;20025;-79
2022/10/05 07:55:30;;;;;;;6.03;3.17;;;;;;;;;;2088495;28;20025;-80
2022/10/05 07:56:55;;;;;;;8.48;3.60;;;;;;;;;;2087314;28;20104;-80
2022/10/05 07:58:28;;;;;;;8.77;3.42;;;;;;;;;;2087351;28;20025;-78
2022/10/05 08:00:12;;;;;;;7.82;3.65;;;;;;;;;;2087428;28;20044;-79
2022/10/05 08:01:31;;;;;;;;;;;;;;;;;;2077801;28;20034;-79
2022/10/05 08:02:57;;;;;;;7.32;2.90;;;;;;;;;;2079087;28;19956;-82
2022/10/05 08:04:22;;;;;;;6.78;3.30;;;;;;;;;;2077130;28;20030;-79
2022/10/05 08:05:41;;;;;;;6.35;3.05;;;;;;;;;;2075303;28;20422;-80
2022/10/05 08:07:03;;;;;;;5.90;3.15;;;;;;;;;;2086118;28;20501;-79
2022/10/05 08:08:22;;;;;;;13.02;4.32;;;;;;;;;;2080217;28;20029;-80
2022/10/05 08:09:56;;;;;;;4.97;3.42;;;;;;;;;;2086401;28;20029;-79
2022/10/05 08:11:16;;;;;;;6.95;3.35;;;;;;;;;;2088119;28;20455;-80
2022/10/05 08:12:41;;;;;;;7.03;2.83;;;;;;;;;;2078425;28;20029;-80
2022/10/05 08:14:23;;;;;;;6.97;4.13;;;;;;;;;;2077379;28;20518;-81
2022/10/05 08:15:46;;;;;;;5.20;3.15;;;;;;;;;;2088017;28;20036;-81
2022/10/05 08:17:10;;;;;;;8.82;3.55;;;;;;;;;;2088273;28;20211;-80
2022/10/05 08:18:35;;;;;;;7.07;3.60;;;;;;;;;;2087442;28;20029;-80
2022/10/05 08:20:00;;;;;;;10.60;3.20;;;;;;;;;;2090013;28;20060;-81
2022/10/05 08:21:21;;;;;;;7.28;3.28;;;;;;;;;;2088041;28;20033;-81
2022/10/05 08:22:42;;;;;;;4.03;3.30;;;;;;;;;;2089300;28;20029;-81
2022/10/05 08:24:27;;;;;;;6.75;3.22;;;;;;;;;;2090218;28;20104;-81
2022/10/05 08:25:54;;;;;;;4.95;3.40;;;;;;;;;;2080756;28;20037;-80
2022/10/05 08:27:24;;;;;;;4.50;3.20;;;;;;;;;;2084935;28;20025;-79
2022/10/05 08:29:06;;;;;;;3.40;2.63;;;;;;;;;;2084395;28;20022;-81
2022/10/05 08:30:25;;;;;;;4.82;2.97;;;;;;;;;;2067269;28;20047;-81
2022/10/05 08:31:45;;;;;;;6.70;2.97;;;;;;;;;;2087694;28;20045;-80
2022/10/05 08:33:09;;;;;;;7.55;3.03;;;;;;;;;;2089221;28;20104;-81
2022/10/05 08:34:40;;;;;;;6.00;3.28;;;;;;;;;;2089420;28;20033;-79
2022/10/05 08:36:04;;;;;;;5.20;3.13;;;;;;;;;;2089331;28;20061;-79
2022/10/05 08:37:29;;;;;;;8.80;2.75;;;;;;;;;;2079383;28;20034;-80
2022/10/05 08:38:53;;;;;;;6.82;2.90;;;;;;;;;;2078790;28;20025;-80
2022/10/05 08:40:35;;;;;;;6.35;2.75;;;;;;;;;;2077971;28;20457;-80
2022/10/05 08:42:13;;;;;;;4.97;3.08;;;;;;;;;;2063497;28;20032;-80
2022/10/05 08:43:47;;;;;;;7.28;2.72;;;;;;;;;;2088081;28;20036;-80
2022/10/05 08:45:25;;;;;;;7.28;2.72;;;;;;;;;;2079195;28;20427;-80